KBMQ

Details ICAO KBMQ (BMQ)
Name BURNET MUNI KATE CRADDOCK FLD
Region United States
Timezone America/Chicago (UTC-5.0)
Plans Departing 5
Arriving 7
Stats Elevation 1,284 ft / 391 m (AMSL)
Location 30.738928° -98.238609°
Runways 1
Magnetic Variation 4.082° E
Sunrise 2018-05-21 11:36:08 UTC / 2018-05-21 06:36:08 Local
Sunset 2018-05-22 01:25:51 UTC / 2018-05-21 20:25:51 Local
Advertisement - Login to hide

Runways

ID Width Length Bearing (true) Bearing (mag) Surface Threshold Offset Overrun Length
01 75 ft / 23 m 5,015 ft / 1,529 m 16.07° 11.99° Asphalt 0 ft / 0 m 0 ft / 0 m
19 75 ft / 23 m 5,015 ft / 1,529 m 196.07° 191.99° Asphalt 0 ft / 0 m 0 ft / 0 m

Map

Weather


0- 5 10 15 20 25 30 35+ Temperature / ° C

Clouds and Precipitation
Forecast for 2018-05-21 12:00 UTC. Updated 19 minutes ago

Ground ~20,000 ft ~40,000 ft Winds

METAR

KBMQ 210932Z AUTO 07005KT 10SM BKN005 BKN009 OVC015 20/19 A3001 RMK AO2 T02000189 $

TAF

Not found

Frequencies

Recorded 119.92 MHz ASOS
Unicom 122.80 MHz CTAF/UNICOM
Warning: Do not use this data for real-world aviation or navigation. No guarantee of current accuracy is given.